sensor_id;sensor_type;location;lat;lon;timestamp;P1;durP1;ratioP1;P2;durP2;ratioP2
2840;SDS011;53423;49.224;12.074;2023-06-14T00:00:34;3.53;;;3.23;;
2840;SDS011;53423;49.224;12.074;2023-06-14T00:03:02;3.87;;;3.57;;
2840;SDS011;53423;49.224;12.074;2023-06-14T00:05:31;3.60;;;3.30;;
2840;SDS011;53423;49.224;12.074;2023-06-14T00:08:06;4.30;;;3.63;;
2840;SDS011;53423;49.224;12.074;2023-06-14T00:10:34;4.03;;;3.70;;
2840;SDS011;53423;49.224;12.074;2023-06-14T00:13:03;4.00;;;3.60;;
2840;SDS011;53423;49.224;12.074;2023-06-14T00:15:31;3.57;;;3.27;;
2840;SDS011;53423;49.224;12.074;2023-06-14T00:17:59;3.77;;;3.40;;
2840;SDS011;53423;49.224;12.074;2023-06-14T00:20:28;4.20;;;3.50;;
2840;SDS011;53423;49.224;12.074;2023-06-14T00:22:57;4.23;;;3.20;;
2840;SDS011;53423;49.224;12.074;2023-06-14T00:25:26;3.83;;;3.53;;
2840;SDS011;53423;49.224;12.074;2023-06-14T00:27:56;4.53;;;3.67;;
2840;SDS011;53423;49.224;12.074;2023-06-14T00:30:25;3.60;;;3.30;;
2840;SDS011;53423;49.224;12.074;2023-06-14T00:32:57;4.37;;;3.40;;
2840;SDS011;53423;49.224;12.074;2023-06-14T00:35:26;3.80;;;3.50;;
2840;SDS011;53423;49.224;12.074;2023-06-14T00:37:54;5.10;;;3.57;;
2840;SDS011;53423;49.224;12.074;2023-06-14T00:40:21;3.83;;;3.20;;
2840;SDS011;53423;49.224;12.074;2023-06-14T00:42:51;3.87;;;3.57;;
2840;SDS011;53423;49.224;12.074;2023-06-14T00:45:19;4.33;;;3.93;;
2840;SDS011;53423;49.224;12.074;2023-06-14T00:47:47;4.20;;;3.30;;
2840;SDS011;53423;49.224;12.074;2023-06-14T00:50:17;3.70;;;3.40;;
2840;SDS011;53423;49.224;12.074;2023-06-14T00:52:47;6.00;;;3.87;;
2840;SDS011;53423;49.224;12.074;2023-06-14T00:55:15;3.73;;;3.33;;
2840;SDS011;53423;49.224;12.074;2023-06-14T00:57:44;4.07;;;3.70;;
2840;SDS011;53423;49.224;12.074;2023-06-14T01:00:14;4.33;;;3.47;;
2840;SDS011;53423;49.224;12.074;2023-06-14T01:02:43;3.80;;;3.50;;
2840;SDS011;53423;49.224;12.074;2023-06-14T01:05:11;3.50;;;3.20;;
2840;SDS011;53423;49.224;12.074;2023-06-14T01:07:43;3.73;;;3.30;;
2840;SDS011;53423;49.224;12.074;2023-06-14T01:10:22;4.67;;;3.77;;
2840;SDS011;53423;49.224;12.074;2023-06-14T01:13:02;6.00;;;3.73;;
2840;SDS011;53423;49.224;12.074;2023-06-14T01:15:39;5.20;;;3.77;;
2840;SDS011;53423;49.224;12.074;2023-06-14T01:18:10;4.23;;;3.53;;
2840;SDS011;53423;49.224;12.074;2023-06-14T01:20:44;3.60;;;3.30;;
2840;SDS011;53423;49.224;12.074;2023-06-14T01:23:18;4.20;;;3.63;;
2840;SDS011;53423;49.224;12.074;2023-06-14T01:25:47;3.60;;;3.30;;
2840;SDS011;53423;49.224;12.074;2023-06-14T01:28:20;4.30;;;3.90;;
2840;SDS011;53423;49.224;12.074;2023-06-14T01:30:49;4.23;;;3.77;;
2840;SDS011;53423;49.224;12.074;2023-06-14T01:33:20;4.07;;;3.50;;
2840;SDS011;53423;49.224;12.074;2023-06-14T01:35:49;4.70;;;3.83;;
2840;SDS011;53423;49.224;12.074;2023-06-14T01:38:20;4.63;;;3.60;;
2840;SDS011;53423;49.224;12.074;2023-06-14T01:40:51;4.40;;;3.90;;
2840;SDS011;53423;49.224;12.074;2023-06-14T01:43:21;4.43;;;3.43;;
2840;SDS011;53423;49.224;12.074;2023-06-14T01:45:50;3.97;;;3.53;;
2840;SDS011;53423;49.224;12.074;2023-06-14T01:48:21;5.17;;;4.00;;
2840;SDS011;53423;49.224;12.074;2023-06-14T01:50:49;4.47;;;3.60;;
2840;SDS011;53423;49.224;12.074;2023-06-14T01:53:17;5.20;;;4.27;;
2840;SDS011;53423;49.224;12.074;2023-06-14T01:55:46;4.40;;;3.80;;
2840;SDS011;53423;49.224;12.074;2023-06-14T01:58:15;4.30;;;3.70;;
2840;SDS011;53423;49.224;12.074;2023-06-14T02:00:43;4.57;;;3.50;;
2840;SDS011;53423;49.224;12.074;2023-06-14T02:03:11;4.60;;;4.20;;
2840;SDS011;53423;49.224;12.074;2023-06-14T02:05:39;4.37;;;3.97;;
2840;SDS011;53423;49.224;12.074;2023-06-14T02:08:08;4.97;;;4.13;;
2840;SDS011;53423;49.224;12.074;2023-06-14T02:10:36;4.63;;;4.10;;
2840;SDS011;53423;49.224;12.074;2023-06-14T02:13:05;4.70;;;4.30;;
2840;SDS011;53423;49.224;12.074;2023-06-14T02:15:33;6.53;;;4.10;;
2840;SDS011;53423;49.224;12.074;2023-06-14T02:18:02;4.83;;;4.43;;
2840;SDS011;53423;49.224;12.074;2023-06-14T02:20:30;4.83;;;4.33;;
2840;SDS011;53423;49.224;12.074;2023-06-14T02:22:59;4.00;;;3.70;;
2840;SDS011;53423;49.224;12.074;2023-06-14T02:25:27;6.13;;;4.27;;
2840;SDS011;53423;49.224;12.074;2023-06-14T02:27:56;3.90;;;3.50;;
2840;SDS011;53423;49.224;12.074;2023-06-14T02:30:25;6.23;;;3.80;;
2840;SDS011;53423;49.224;12.074;2023-06-14T02:32:53;5.07;;;4.57;;
2840;SDS011;53423;49.224;12.074;2023-06-14T02:35:21;4.63;;;4.13;;
2840;SDS011;53423;49.224;12.074;2023-06-14T02:37:52;4.57;;;3.83;;
2840;SDS011;53423;49.224;12.074;2023-06-14T02:40:20;4.80;;;4.27;;
2840;SDS011;53423;49.224;12.074;2023-06-14T02:42:48;4.23;;;3.90;;
2840;SDS011;53423;49.224;12.074;2023-06-14T02:45:17;6.17;;;4.70;;
2840;SDS011;53423;49.224;12.074;2023-06-14T02:47:46;5.67;;;4.50;;
2840;SDS011;53423;49.224;12.074;2023-06-14T02:50:14;4.67;;;4.10;;
2840;SDS011;53423;49.224;12.074;2023-06-14T02:52:42;4.93;;;4.53;;
2840;SDS011;53423;49.224;12.074;2023-06-14T02:55:11;5.40;;;4.30;;
2840;SDS011;53423;49.224;12.074;2023-06-14T02:57:39;6.17;;;4.30;;
2840;SDS011;53423;49.224;12.074;2023-06-14T03:00:08;4.97;;;4.57;;
2840;SDS011;53423;49.224;12.074;2023-06-14T03:02:40;6.67;;;4.03;;
2840;SDS011;53423;49.224;12.074;2023-06-14T03:05:10;5.00;;;4.60;;
2840;SDS011;53423;49.224;12.074;2023-06-14T03:07:39;4.67;;;4.27;;
2840;SDS011;53423;49.224;12.074;2023-06-14T03:10:08;5.50;;;4.53;;
2840;SDS011;53423;49.224;12.074;2023-06-14T03:12:36;6.13;;;4.23;;
2840;SDS011;53423;49.224;12.074;2023-06-14T03:15:04;5.57;;;4.30;;
2840;SDS011;53423;49.224;12.074;2023-06-14T03:17:33;5.33;;;4.70;;
2840;SDS011;53423;49.224;12.074;2023-06-14T03:20:06;4.67;;;4.27;;
2840;SDS011;53423;49.224;12.074;2023-06-14T03:22:36;4.33;;;4.00;;
2840;SDS011;53423;49.224;12.074;2023-06-14T03:25:06;4.77;;;4.30;;
2840;SDS011;53423;49.224;12.074;2023-06-14T03:27:35;5.00;;;4.50;;
2840;SDS011;53423;49.224;12.074;2023-06-14T03:30:04;5.40;;;4.90;;
2840;SDS011;53423;49.224;12.074;2023-06-14T03:32:34;5.00;;;4.50;;
2840;SDS011;53423;49.224;12.074;2023-06-14T03:35:02;5.43;;;4.93;;
2840;SDS011;53423;49.224;12.074;2023-06-14T03:37:30;4.40;;;4.00;;
2840;SDS011;53423;49.224;12.074;2023-06-14T03:39:59;4.83;;;4.27;;
2840;SDS011;53423;49.224;12.074;2023-06-14T03:42:27;4.90;;;4.50;;
2840;SDS011;53423;49.224;12.074;2023-06-14T03:44:55;4.53;;;4.13;;
2840;SDS011;53423;49.224;12.074;2023-06-14T03:47:23;4.90;;;4.40;;
2840;SDS011;53423;49.224;12.074;2023-06-14T03:49:51;5.13;;;4.50;;
2840;SDS011;53423;49.224;12.074;2023-06-14T03:52:19;5.57;;;4.40;;
2840;SDS011;53423;49.224;12.074;2023-06-14T03:54:48;5.30;;;4.80;;
2840;SDS011;53423;49.224;12.074;2023-06-14T03:57:21;4.73;;;4.33;;
2840;SDS011;53423;49.224;12.074;2023-06-14T03:59:49;4.97;;;4.57;;
2840;SDS011;53423;49.224;12.074;2023-06-14T04:02:17;4.63;;;4.23;;
2840;SDS011;53423;49.224;12.074;2023-06-14T04:04:46;4.87;;;4.47;;
2840;SDS011;53423;49.224;12.074;2023-06-14T04:07:14;5.23;;;4.80;;
2840;SDS011;53423;49.224;12.074;2023-06-14T04:09:45;5.97;;;5.00;;
2840;SDS011;53423;49.224;12.074;2023-06-14T04:12:14;6.57;;;4.80;;
2840;SDS011;53423;49.224;12.074;2023-06-14T04:14:43;6.33;;;4.53;;
2840;SDS011;53423;49.224;12.074;2023-06-14T04:17:11;5.33;;;4.93;;
2840;SDS011;53423;49.224;12.074;2023-06-14T04:19:39;6.97;;;5.40;;
2840;SDS011;53423;49.224;12.074;2023-06-14T04:22:07;6.20;;;5.33;;
2840;SDS011;53423;49.224;12.074;2023-06-14T04:24:37;5.73;;;5.23;;
2840;SDS011;53423;49.224;12.074;2023-06-14T04:27:05;5.60;;;5.10;;
2840;SDS011;53423;49.224;12.074;2023-06-14T04:29:33;5.87;;;4.93;;
2840;SDS011;53423;49.224;12.074;2023-06-14T04:32:02;6.73;;;5.33;;
2840;SDS011;53423;49.224;12.074;2023-06-14T04:34:31;5.90;;;5.00;;
2840;SDS011;53423;49.224;12.074;2023-06-14T04:37:01;5.03;;;4.43;;
2840;SDS011;53423;49.224;12.074;2023-06-14T04:39:28;5.17;;;4.77;;
2840;SDS011;53423;49.224;12.074;2023-06-14T04:41:57;5.23;;;4.70;;
2840;SDS011;53423;49.224;12.074;2023-06-14T04:44:27;5.33;;;4.83;;
2840;SDS011;53423;49.224;12.074;2023-06-14T04:46:58;5.23;;;4.73;;
2840;SDS011;53423;49.224;12.074;2023-06-14T04:49:28;5.17;;;4.63;;
2840;SDS011;53423;49.224;12.074;2023-06-14T04:51:59;5.40;;;4.90;;
2840;SDS011;53423;49.224;12.074;2023-06-14T04:54:28;6.53;;;4.90;;
2840;SDS011;53423;49.224;12.074;2023-06-14T04:56:58;5.43;;;4.93;;
2840;SDS011;53423;49.224;12.074;2023-06-14T04:59:25;7.00;;;5.57;;
2840;SDS011;53423;49.224;12.074;2023-06-14T05:01:53;6.40;;;5.80;;
2840;SDS011;53423;49.224;12.074;2023-06-14T05:04:23;6.03;;;5.30;;
2840;SDS011;53423;49.224;12.074;2023-06-14T05:06:54;5.43;;;4.97;;
2840;SDS011;53423;49.224;12.074;2023-06-14T05:09:22;5.73;;;5.23;;
2840;SDS011;53423;49.224;12.074;2023-06-14T05:11:50;5.90;;;5.30;;
2840;SDS011;53423;49.224;12.074;2023-06-14T05:14:18;6.17;;;5.57;;
2840;SDS011;53423;49.224;12.074;2023-06-14T05:16:48;5.77;;;5.23;;
2840;SDS011;53423;49.224;12.074;2023-06-14T05:19:16;8.03;;;6.67;;
2840;SDS011;53423;49.224;12.074;2023-06-14T05:21:45;8.23;;;5.70;;
2840;SDS011;53423;49.224;12.074;2023-06-14T05:24:15;6.87;;;5.60;;
2840;SDS011;53423;49.224;12.074;2023-06-14T05:26:44;7.20;;;5.30;;
2840;SDS011;53423;49.224;12.074;2023-06-14T05:29:12;6.63;;;5.30;;
2840;SDS011;53423;49.224;12.074;2023-06-14T05:31:40;9.33;;;5.40;;
2840;SDS011;53423;49.224;12.074;2023-06-14T05:34:08;7.13;;;6.13;;
2840;SDS011;53423;49.224;12.074;2023-06-14T05:36:36;8.43;;;6.90;;
2840;SDS011;53423;49.224;12.074;2023-06-14T05:39:05;7.30;;;5.60;;
2840;SDS011;53423;49.224;12.074;2023-06-14T05:41:34;6.93;;;6.07;;
2840;SDS011;53423;49.224;12.074;2023-06-14T05:44:02;8.43;;;6.47;;
2840;SDS011;53423;49.224;12.074;2023-06-14T05:46:30;6.67;;;5.17;;
2840;SDS011;53423;49.224;12.074;2023-06-14T05:48:58;6.07;;;5.10;;
2840;SDS011;53423;49.224;12.074;2023-06-14T05:51:26;7.17;;;5.43;;
2840;SDS011;53423;49.224;12.074;2023-06-14T05:53:55;5.93;;;5.33;;
2840;SDS011;53423;49.224;12.074;2023-06-14T05:56:23;6.20;;;5.47;;
2840;SDS011;53423;49.224;12.074;2023-06-14T05:58:53;5.97;;;5.37;;
2840;SDS011;53423;49.224;12.074;2023-06-14T06:01:21;5.30;;;4.80;;
2840;SDS011;53423;49.224;12.074;2023-06-14T06:03:49;5.70;;;5.17;;
2840;SDS011;53423;49.224;12.074;2023-06-14T06:06:17;5.70;;;5.20;;
2840;SDS011;53423;49.224;12.074;2023-06-14T06:08:45;6.30;;;5.47;;
2840;SDS011;53423;49.224;12.074;2023-06-14T06:11:13;5.40;;;4.90;;
2840;SDS011;53423;49.224;12.074;2023-06-14T06:13:41;6.30;;;5.40;;
2840;SDS011;53423;49.224;12.074;2023-06-14T06:16:10;5.03;;;4.57;;
2840;SDS011;53423;49.224;12.074;2023-06-14T06:18:38;5.77;;;5.03;;
2840;SDS011;53423;49.224;12.074;2023-06-14T06:21:08;5.37;;;4.87;;
2840;SDS011;53423;49.224;12.074;2023-06-14T06:23:36;6.27;;;5.70;;
2840;SDS011;53423;49.224;12.074;2023-06-14T06:26:04;5.30;;;4.80;;
2840;SDS011;53423;49.224;12.074;2023-06-14T06:28:32;4.73;;;4.20;;
2840;SDS011;53423;49.224;12.074;2023-06-14T06:31:00;5.53;;;4.80;;
2840;SDS011;53423;49.224;12.074;2023-06-14T06:33:32;5.47;;;4.90;;
2840;SDS011;53423;49.224;12.074;2023-06-14T06:36:00;5.00;;;4.47;;
2840;SDS011;53423;49.224;12.074;2023-06-14T06:38:27;5.13;;;4.70;;
2840;SDS011;53423;49.224;12.074;2023-06-14T06:40:56;4.90;;;4.43;;
2840;SDS011;53423;49.224;12.074;2023-06-14T06:43:24;6.17;;;4.60;;
2840;SDS011;53423;49.224;12.074;2023-06-14T06:45:52;5.23;;;4.73;;
2840;SDS011;53423;49.224;12.074;2023-06-14T06:48:20;4.43;;;4.03;;
2840;SDS011;53423;49.224;12.074;2023-06-14T06:50:49;5.17;;;4.50;;
2840;SDS011;53423;49.224;12.074;2023-06-14T06:53:17;4.83;;;4.40;;
2840;SDS011;53423;49.224;12.074;2023-06-14T06:56:00;6.50;;;3.90;;
2840;SDS011;53423;49.224;12.074;2023-06-14T06:58:28;5.23;;;3.90;;
2840;SDS011;53423;49.224;12.074;2023-06-14T07:00:56;4.57;;;4.17;;
2840;SDS011;53423;49.224;12.074;2023-06-14T07:03:24;5.00;;;4.57;;
2840;SDS011;53423;49.224;12.074;2023-06-14T07:05:53;5.13;;;4.13;;
2840;SDS011;53423;49.224;12.074;2023-06-14T07:08:21;5.57;;;4.57;;
2840;SDS011;53423;49.224;12.074;2023-06-14T07:10:49;4.50;;;4.10;;
2840;SDS011;53423;49.224;12.074;2023-06-14T07:13:17;4.63;;;4.23;;
2840;SDS011;53423;49.224;12.074;2023-06-14T07:15:45;7.03;;;4.73;;
2840;SDS011;53423;49.224;12.074;2023-06-14T07:18:13;4.70;;;4.30;;
2840;SDS011;53423;49.224;12.074;2023-06-14T07:20:42;4.60;;;4.20;;
2840;SDS011;53423;49.224;12.074;2023-06-14T07:23:12;4.30;;;4.00;;
2840;SDS011;53423;49.224;12.074;2023-06-14T07:25:39;5.03;;;4.57;;
2840;SDS011;53423;49.224;12.074;2023-06-14T07:28:07;4.97;;;4.33;;
2840;SDS011;53423;49.224;12.074;2023-06-14T07:30:36;6.07;;;4.10;;
2840;SDS011;53423;49.224;12.074;2023-06-14T07:33:04;4.53;;;4.13;;
2840;SDS011;53423;49.224;12.074;2023-06-14T07:35:32;4.60;;;4.20;;
2840;SDS011;53423;49.224;12.074;2023-06-14T07:38:00;4.60;;;4.20;;
2840;SDS011;53423;49.224;12.074;2023-06-14T07:40:29;5.50;;;4.15;;
2840;SDS011;53423;49.224;12.074;2023-06-14T07:42:57;4.82;;;4.18;;
2840;SDS011;53423;49.224;12.074;2023-06-14T07:45:25;4.85;;;4.30;;
2840;SDS011;53423;49.224;12.074;2023-06-14T07:47:53;4.38;;;4.03;;
2840;SDS011;53423;49.224;12.074;2023-06-14T07:50:21;4.88;;;4.47;;
2840;SDS011;53423;49.224;12.074;2023-06-14T07:52:50;4.45;;;3.85;;
2840;SDS011;53423;49.224;12.074;2023-06-14T07:55:18;5.10;;;4.05;;
2840;SDS011;53423;49.224;12.074;2023-06-14T07:57:47;4.63;;;4.22;;
2840;SDS011;53423;49.224;12.074;2023-06-14T08:00:16;5.85;;;4.32;;
2840;SDS011;53423;49.224;12.074;2023-06-14T08:02:45;5.78;;;4.22;;
2840;SDS011;53423;49.224;12.074;2023-06-14T08:05:14;5.72;;;4.03;;
2840;SDS011;53423;49.224;12.074;2023-06-14T08:07:42;5.53;;;4.13;;
2840;SDS011;53423;49.224;12.074;2023-06-14T08:10:10;4.15;;;3.85;;
2840;SDS011;53423;49.224;12.074;2023-06-14T08:12:39;4.30;;;3.70;;
2840;SDS011;53423;49.224;12.074;2023-06-14T08:15:08;4.43;;;4.03;;
2840;SDS011;53423;49.224;12.074;2023-06-14T08:17:42;4.65;;;4.25;;
2840;SDS011;53423;49.224;12.074;2023-06-14T08:20:11;4.78;;;4.35;;
2840;SDS011;53423;49.224;12.074;2023-06-14T08:22:39;5.70;;;3.80;;
2840;SDS011;53423;49.224;12.074;2023-06-14T08:25:08;4.53;;;4.00;;
2840;SDS011;53423;49.224;12.074;2023-06-14T08:27:37;13.98;;;12.88;;
2840;SDS011;53423;49.224;12.074;2023-06-14T08:30:05;4.70;;;4.30;;
2840;SDS011;53423;49.224;12.074;2023-06-14T08:32:36;5.00;;;4.50;;
2840;SDS011;53423;49.224;12.074;2023-06-14T08:35:04;4.60;;;4.20;;
2840;SDS011;53423;49.224;12.074;2023-06-14T08:37:33;4.22;;;3.83;;
2840;SDS011;53423;49.224;12.074;2023-06-14T08:40:07;4.72;;;4.20;;
2840;SDS011;53423;49.224;12.074;2023-06-14T08:42:45;5.35;;;3.72;;
2840;SDS011;53423;49.224;12.074;2023-06-14T08:45:15;4.50;;;3.85;;
2840;SDS011;53423;49.224;12.074;2023-06-14T08:47:45;4.60;;;4.20;;
2840;SDS011;53423;49.224;12.074;2023-06-14T08:50:20;3.92;;;3.63;;
2840;SDS011;53423;49.224;12.074;2023-06-14T08:52:54;4.32;;;4.03;;
2840;SDS011;53423;49.224;12.074;2023-06-14T08:55:27;5.75;;;4.20;;
2840;SDS011;53423;49.224;12.074;2023-06-14T08:58:01;4.60;;;3.70;;
2840;SDS011;53423;49.224;12.074;2023-06-14T09:00:30;4.30;;;3.90;;
2840;SDS011;53423;49.224;12.074;2023-06-14T09:03:01;4.55;;;3.85;;
2840;SDS011;53423;49.224;12.074;2023-06-14T09:05:30;4.35;;;3.95;;
2840;SDS011;53423;49.224;12.074;2023-06-14T09:07:58;4.50;;;4.10;;
2840;SDS011;53423;49.224;12.074;2023-06-14T09:10:32;5.03;;;3.90;;
2840;SDS011;53423;49.224;12.074;2023-06-14T09:13:01;4.20;;;3.88;;
2840;SDS011;53423;49.224;12.074;2023-06-14T09:15:30;4.30;;;3.90;;
2840;SDS011;53423;49.224;12.074;2023-06-14T09:18:01;4.10;;;3.80;;
2840;SDS011;53423;49.224;12.074;2023-06-14T09:20:30;4.50;;;4.10;;
2840;SDS011;53423;49.224;12.074;2023-06-14T09:22:58;4.13;;;3.70;;
2840;SDS011;53423;49.224;12.074;2023-06-14T09:25:28;4.88;;;4.18;;
2840;SDS011;53423;49.224;12.074;2023-06-14T09:28:06;3.97;;;3.67;;
2840;SDS011;53423;49.224;12.074;2023-06-14T09:30:36;3.85;;;3.50;;
2840;SDS011;53423;49.224;12.074;2023-06-14T09:33:05;3.72;;;3.42;;
2840;SDS011;53423;49.224;12.074;2023-06-14T09:35:34;4.30;;;3.63;;
2840;SDS011;53423;49.224;12.074;2023-06-14T09:38:02;4.07;;;3.65;;
2840;SDS011;53423;49.224;12.074;2023-06-14T09:40:33;3.50;;;3.30;;
2840;SDS011;53423;49.224;12.074;2023-06-14T09:43:04;3.90;;;3.60;;
2840;SDS011;53423;49.224;12.074;2023-06-14T09:45:35;3.65;;;3.35;;
2840;SDS011;53423;49.224;12.074;2023-06-14T09:48:03;4.22;;;3.58;;
2840;SDS011;53423;49.224;12.074;2023-06-14T09:50:34;4.65;;;3.75;;
2840;SDS011;53423;49.224;12.074;2023-06-14T09:53:07;3.55;;;3.28;;
2840;SDS011;53423;49.224;12.074;2023-06-14T09:55:40;3.90;;;3.60;;
2840;SDS011;53423;49.224;12.074;2023-06-14T09:58:09;4.30;;;3.90;;
2840;SDS011;53423;49.224;12.074;2023-06-14T10:00:39;3.83;;;3.45;;
2840;SDS011;53423;49.224;12.074;2023-06-14T10:03:12;4.97;;;3.55;;
2840;SDS011;53423;49.224;12.074;2023-06-14T10:05:42;4.07;;;3.70;;
2840;SDS011;53423;49.224;12.074;2023-06-14T10:08:14;3.75;;;3.45;;
2840;SDS011;53423;49.224;12.074;2023-06-14T10:10:44;4.07;;;3.78;;
2840;SDS011;53423;49.224;12.074;2023-06-14T10:13:12;4.30;;;3.90;;
2840;SDS011;53423;49.224;12.074;2023-06-14T10:15:43;4.13;;;3.53;;
2840;SDS011;53423;49.224;12.074;2023-06-14T10:18:23;3.60;;;3.30;;
2840;SDS011;53423;49.224;12.074;2023-06-14T10:20:58;4.32;;;3.85;;
2840;SDS011;53423;49.224;12.074;2023-06-14T10:23:35;5.43;;;4.00;;
2840;SDS011;53423;49.224;12.074;2023-06-14T10:26:06;4.40;;;4.10;;
2840;SDS011;53423;49.224;12.074;2023-06-14T10:28:36;4.07;;;3.78;;
2840;SDS011;53423;49.224;12.074;2023-06-14T10:31:06;4.65;;;4.15;;
2840;SDS011;53423;49.224;12.074;2023-06-14T10:33:39;4.40;;;3.60;;
2840;SDS011;53423;49.224;12.074;2023-06-14T10:36:26;5.20;;;4.13;;
2840;SDS011;53423;49.224;12.074;2023-06-14T10:38:57;3.97;;;3.67;;
2840;SDS011;53423;49.224;12.074;2023-06-14T10:41:26;3.78;;;3.47;;
2840;SDS011;53423;49.224;12.074;2023-06-14T10:49:54;5.15;;;3.95;;
2840;SDS011;53423;49.224;12.074;2023-06-14T10:52:24;4.10;;;3.80;;
2840;SDS011;53423;49.224;12.074;2023-06-14T10:55:01;4.38;;;4.03;;
2840;SDS011;53423;49.224;12.074;2023-06-14T10:57:32;4.35;;;3.92;;
2840;SDS011;53423;49.224;12.074;2023-06-14T11:00:18;4.15;;;3.72;;
2840;SDS011;53423;49.224;12.074;2023-06-14T11:03:18;3.50;;;3.20;;
2840;SDS011;53423;49.224;12.074;2023-06-14T11:06:11;4.05;;;3.67;;
2840;SDS011;53423;49.224;12.074;2023-06-14T11:11:53;4.22;;;3.60;;
2840;SDS011;53423;49.224;12.074;2023-06-14T11:14:23;3.92;;;3.53;;
2840;SDS011;53423;49.224;12.074;2023-06-14T11:16:51;5.32;;;3.58;;
2840;SDS011;53423;49.224;12.074;2023-06-14T11:19:19;4.40;;;3.63;;
2840;SDS011;53423;49.224;12.074;2023-06-14T11:21:50;3.92;;;3.47;;
2840;SDS011;53423;49.224;12.074;2023-06-14T11:24:19;6.22;;;3.35;;
2840;SDS011;53423;49.224;12.074;2023-06-14T11:26:47;3.90;;;3.47;;
2840;SDS011;53423;49.224;12.074;2023-06-14T11:29:15;4.07;;;3.35;;
2840;SDS011;53423;49.224;12.074;2023-06-14T11:31:44;4.38;;;3.55;;
2840;SDS011;53423;49.224;12.074;2023-06-14T11:34:13;4.88;;;3.65;;
2840;SDS011;53423;49.224;12.074;2023-06-14T11:36:41;5.57;;;3.55;;
2840;SDS011;53423;49.224;12.074;2023-06-14T11:39:11;3.22;;;2.95;;
2840;SDS011;53423;49.224;12.074;2023-06-14T11:41:43;5.28;;;3.45;;
2840;SDS011;53423;49.224;12.074;2023-06-14T11:44:12;4.13;;;3.63;;
2840;SDS011;53423;49.224;12.074;2023-06-14T11:46:40;3.78;;;3.47;;
2840;SDS011;53423;49.224;12.074;2023-06-14T11:49:08;3.90;;;3.50;;
2840;SDS011;53423;49.224;12.074;2023-06-14T11:51:36;3.50;;;3.20;;
2840;SDS011;53423;49.224;12.074;2023-06-14T11:54:05;4.40;;;3.33;;
2840;SDS011;53423;49.224;12.074;2023-06-14T11:56:36;4.75;;;3.30;;
2840;SDS011;53423;49.224;12.074;2023-06-14T11:59:04;4.55;;;3.60;;
2840;SDS011;53423;49.224;12.074;2023-06-14T12:01:37;4.75;;;3.58;;
2840;SDS011;53423;49.224;12.074;2023-06-14T12:04:06;4.22;;;3.40;;
2840;SDS011;53423;49.224;12.074;2023-06-14T12:06:34;3.35;;;3.15;;
2840;SDS011;53423;49.224;12.074;2023-06-14T12:09:06;3.63;;;3.33;;
2840;SDS011;53423;49.224;12.074;2023-06-14T12:11:41;3.83;;;3.35;;
2840;SDS011;53423;49.224;12.074;2023-06-14T12:14:09;3.80;;;3.13;;
2840;SDS011;53423;49.224;12.074;2023-06-14T12:16:37;3.47;;;2.92;;
2840;SDS011;53423;49.224;12.074;2023-06-14T12:19:09;5.07;;;3.55;;
2840;SDS011;53423;49.224;12.074;2023-06-14T12:21:39;4.60;;;3.38;;
2840;SDS011;53423;49.224;12.074;2023-06-14T12:24:08;3.83;;;3.20;;
2840;SDS011;53423;49.224;12.074;2023-06-14T12:26:40;4.60;;;3.30;;
2840;SDS011;53423;49.224;12.074;2023-06-14T12:29:09;3.30;;;3.05;;
2840;SDS011;53423;49.224;12.074;2023-06-14T12:31:39;3.70;;;3.40;;
2840;SDS011;53423;49.224;12.074;2023-06-14T12:34:08;4.25;;;3.83;;
2840;SDS011;53423;49.224;12.074;2023-06-14T12:36:36;3.67;;;3.38;;
2840;SDS011;53423;49.224;12.074;2023-06-14T12:39:08;4.10;;;3.70;;
2840;SDS011;53423;49.224;12.074;2023-06-14T12:41:36;3.47;;;3.17;;
2840;SDS011;53423;49.224;12.074;2023-06-14T12:44:05;4.43;;;3.40;;
2840;SDS011;53423;49.224;12.074;2023-06-14T12:46:34;4.15;;;3.47;;
2840;SDS011;53423;49.224;12.074;2023-06-14T12:49:03;3.45;;;3.15;;
2840;SDS011;53423;49.224;12.074;2023-06-14T12:51:31;4.70;;;3.83;;
2840;SDS011;53423;49.224;12.074;2023-06-14T12:53:59;3.70;;;3.38;;
2840;SDS011;53423;49.224;12.074;2023-06-14T12:56:28;3.50;;;3.20;;
2840;SDS011;53423;49.224;12.074;2023-06-14T12:58:56;5.55;;;3.28;;
2840;SDS011;53423;49.224;12.074;2023-06-14T13:01:26;3.58;;;3.28;;
2840;SDS011;53423;49.224;12.074;2023-06-14T13:03:54;4.63;;;3.58;;
2840;SDS011;53423;49.224;12.074;2023-06-14T13:06:22;4.65;;;3.15;;
2840;SDS011;53423;49.224;12.074;2023-06-14T13:08:51;4.28;;;3.30;;
2840;SDS011;53423;49.224;12.074;2023-06-14T13:11:21;3.70;;;3.40;;
2840;SDS011;53423;49.224;12.074;2023-06-14T13:13:49;3.55;;;3.10;;
2840;SDS011;53423;49.224;12.074;2023-06-14T13:16:17;4.82;;;3.42;;
2840;SDS011;53423;49.224;12.074;2023-06-14T13:18:46;3.75;;;3.45;;
2840;SDS011;53423;49.224;12.074;2023-06-14T13:21:14;3.45;;;3.15;;
2840;SDS011;53423;49.224;12.074;2023-06-14T13:23:42;4.50;;;3.60;;
2840;SDS011;53423;49.224;12.074;2023-06-14T13:26:10;3.78;;;3.42;;
2840;SDS011;53423;49.224;12.074;2023-06-14T13:28:38;3.80;;;3.50;;
2840;SDS011;53423;49.224;12.074;2023-06-14T13:31:06;3.92;;;3.63;;
2840;SDS011;53423;49.224;12.074;2023-06-14T13:33:34;3.53;;;3.22;;
2840;SDS011;53423;49.224;12.074;2023-06-14T13:36:04;4.93;;;3.22;;
2840;SDS011;53423;49.224;12.074;2023-06-14T13:38:32;4.50;;;3.25;;
2840;SDS011;53423;49.224;12.074;2023-06-14T13:41:00;3.50;;;3.20;;
2840;SDS011;53423;49.224;12.074;2023-06-14T13:43:28;3.50;;;3.20;;
2840;SDS011;53423;49.224;12.074;2023-06-14T13:45:56;3.70;;;3.40;;
2840;SDS011;53423;49.224;12.074;2023-06-14T13:48:24;4.03;;;3.33;;
2840;SDS011;53423;49.224;12.074;2023-06-14T13:50:52;3.45;;;3.17;;
2840;SDS011;53423;49.224;12.074;2023-06-14T13:53:22;5.22;;;3.42;;
2840;SDS011;53423;49.224;12.074;2023-06-14T13:55:50;3.60;;;3.30;;
2840;SDS011;53423;49.224;12.074;2023-06-14T13:58:18;3.60;;;3.30;;
2840;SDS011;53423;49.224;12.074;2023-06-14T14:00:46;3.40;;;3.20;;
2840;SDS011;53423;49.224;12.074;2023-06-14T14:03:14;3.60;;;3.30;;
2840;SDS011;53423;49.224;12.074;2023-06-14T14:05:43;3.28;;;3.00;;
2840;SDS011;53423;49.224;12.074;2023-06-14T14:08:11;5.13;;;3.65;;
2840;SDS011;53423;49.224;12.074;2023-06-14T14:10:40;3.88;;;3.58;;
2840;SDS011;53423;49.224;12.074;2023-06-14T14:13:08;4.90;;;3.40;;
2840;SDS011;53423;49.224;12.074;2023-06-14T14:15:36;3.80;;;3.50;;
2840;SDS011;53423;49.224;12.074;2023-06-14T14:18:05;3.92;;;3.45;;
2840;SDS011;53423;49.224;12.074;2023-06-14T14:20:33;4.60;;;3.55;;
2840;SDS011;53423;49.224;12.074;2023-06-14T14:23:01;5.40;;;3.72;;
2840;SDS011;53423;49.224;12.074;2023-06-14T14:25:29;4.00;;;3.40;;
2840;SDS011;53423;49.224;12.074;2023-06-14T14:27:58;3.47;;;3.17;;
2840;SDS011;53423;49.224;12.074;2023-06-14T14:30:26;4.13;;;3.38;;
2840;SDS011;53423;49.224;12.074;2023-06-14T14:32:55;3.28;;;2.97;;
2840;SDS011;53423;49.224;12.074;2023-06-14T14:35:23;3.80;;;3.50;;
2840;SDS011;53423;49.224;12.074;2023-06-14T14:37:56;5.60;;;3.20;;
2840;SDS011;53423;49.224;12.074;2023-06-14T14:40:24;3.40;;;3.15;;
2840;SDS011;53423;49.224;12.074;2023-06-14T14:42:52;3.97;;;3.58;;
2840;SDS011;53423;49.224;12.074;2023-06-14T14:45:22;3.67;;;3.38;;
2840;SDS011;53423;49.224;12.074;2023-06-14T14:47:50;4.07;;;3.35;;
2840;SDS011;53423;49.224;12.074;2023-06-14T14:50:21;3.10;;;2.90;;
2840;SDS011;53423;49.224;12.074;2023-06-14T14:52:49;3.50;;;2.97;;
2840;SDS011;53423;49.224;12.074;2023-06-14T14:55:17;4.82;;;3.22;;
2840;SDS011;53423;49.224;12.074;2023-06-14T14:57:45;3.42;;;3.13;;
2840;SDS011;53423;49.224;12.074;2023-06-14T15:00:13;3.78;;;3.25;;
2840;SDS011;53423;49.224;12.074;2023-06-14T15:02:43;3.15;;;2.90;;
2840;SDS011;53423;49.224;12.074;2023-06-14T15:05:12;3.53;;;3.22;;
2840;SDS011;53423;49.224;12.074;2023-06-14T15:07:40;5.20;;;3.58;;
2840;SDS011;53423;49.224;12.074;2023-06-14T15:10:08;4.05;;;3.47;;